Time;durP1;ratioP1;P1;durP2;ratioP2;P2;SDS_P1;SDS_P2;PMS_P1;PMS_P2;Temp;Humidity;BMP_temperature;BMP_pressure;BME280_temperature;BME280_humidity;BME280_pressure;Samples;Min_cycle;Max_cycle;Signal;HPM_P1;HPM_P2
2023/03/10 00:01:18;;;;;;;2.85;1.33;;;;;;;7.60;91.65;97555.09;4485337;31;20180;-66
2023/03/10 00:03:47;;;;;;;3.25;1.50;;;;;;;7.64;91.39;97543.44;4484959;31;20172;-66
2023/03/10 00:06:16;;;;;;;3.28;1.27;;;;;;;7.60;91.32;97539.47;4485328;31;20151;-66
2023/03/10 00:08:43;;;;;;;2.72;1.40;;;;;;;7.45;91.88;97541.75;4485109;31;20076;-66
2023/03/10 00:11:11;;;;;;;4.93;1.80;;;;;;;7.30;92.89;97548.44;4485356;31;20115;-66
2023/03/10 00:13:38;;;;;;;3.80;1.50;;;;;;;7.09;95.40;97543.50;4485047;31;20156;-66
2023/03/10 00:16:06;;;;;;;4.25;1.50;;;;;;;6.97;95.97;97542.06;4485022;31;20355;-66
2023/03/10 00:18:34;;;;;;;3.58;1.52;;;;;;;6.89;96.70;97540.19;4485496;31;20159;-66
2023/03/10 00:21:01;;;;;;;4.80;1.98;;;;;;;6.82;97.63;97542.53;4485267;32;20084;-66
2023/03/10 00:23:28;;;;;;;3.78;1.77;;;;;;;6.80;97.94;97539.25;4485088;31;20161;-66
2023/03/10 00:25:57;;;;;;;3.00;1.62;;;;;;;6.70;99.06;97530.66;4485111;31;20465;-66
2023/03/10 00:28:26;;;;;;;3.95;1.87;;;;;;;6.63;100.00;97537.38;4484986;31;20108;-66
2023/03/10 00:31:04;;;;;;;4.03;1.60;;;;;;;6.59;100.00;97541.25;4485166;31;20131;-66
2023/03/10 00:33:33;;;;;;;2.62;1.60;;;;;;;6.42;100.00;97535.81;4484893;31;20130;-66
2023/03/10 00:36:16;;;;;;;2.83;1.62;;;;;;;6.28;100.00;97525.84;4485091;31;20160;-66
2023/03/10 00:38:44;;;;;;;3.28;1.70;;;;;;;6.33;100.00;97521.06;4484877;31;20234;-66
2023/03/10 00:41:16;;;;;;;4.40;2.50;;;;;;;6.24;100.00;97519.28;4485082;31;20093;-66
2023/03/10 00:43:44;;;;;;;1.77;1.42;;;;;;;6.07;100.00;97513.88;4484958;31;20149;-66
2023/03/10 00:46:12;;;;;;;5.15;2.65;;;;;;;5.95;100.00;97522.72;4484915;32;20491;-66
2023/03/10 00:48:41;;;;;;;3.45;1.92;;;;;;;5.86;100.00;97514.81;4484964;31;20108;-66
2023/03/10 00:51:10;;;;;;;4.53;1.70;;;;;;;5.82;100.00;97520.44;4485029;31;20184;-66
2023/03/10 00:53:38;;;;;;;3.92;1.65;;;;;;;5.78;100.00;97509.47;4484575;31;20158;-66
2023/03/10 00:56:07;;;;;;;3.05;1.67;;;;;;;5.79;100.00;97505.12;4484895;32;20084;-66
2023/03/10 00:58:35;;;;;;;3.67;1.40;;;;;;;5.83;100.00;97507.28;4484934;31;20453;-66
2023/03/10 01:01:03;;;;;;;3.15;1.30;;;;;;;5.81;100.00;97506.63;4484861;31;20148;-66
2023/03/10 01:03:31;;;;;;;4.70;1.98;;;;;;;5.82;100.00;97507.44;4483785;32;20123;-66
2023/03/10 01:05:59;;;;;;;2.30;1.35;;;;;;;5.87;100.00;97502.63;4484574;31;20131;-66
2023/03/10 01:08:26;;;;;;;3.78;1.60;;;;;;;5.87;100.00;97502.63;4484716;31;20431;-66
2023/03/10 01:10:53;;;;;;;2.72;1.62;;;;;;;5.87;100.00;97493.06;4484667;32;20089;-66
2023/03/10 01:13:20;;;;;;;4.97;2.55;;;;;;;5.86;100.00;97490.59;4484663;31;20446;-66
2023/03/10 01:15:49;;;;;;;4.28;1.73;;;;;;;5.78;100.00;97485.28;4484322;31;20101;-66
2023/03/10 01:18:18;;;;;;;3.67;1.55;;;;;;;5.72;100.00;97481.44;4484691;31;20104;-66
2023/03/10 01:20:46;;;;;;;3.65;1.65;;;;;;;5.70;100.00;97478.16;4484517;31;20144;-66
2023/03/10 01:23:26;;;;;;;3.78;1.50;;;;;;;5.64;100.00;97476.13;4484607;32;20607;-66
2023/03/10 01:25:54;;;;;;;4.30;1.50;;;;;;;5.64;100.00;97476.13;4484495;32;20339;-66
2023/03/10 01:28:21;;;;;;;5.70;2.05;;;;;;;5.58;100.00;97472.28;4484779;31;20539;-66
2023/03/10 01:30:49;;;;;;;4.35;1.62;;;;;;;5.59;100.00;97468.75;4484370;31;20119;-66
2023/03/10 01:33:16;;;;;;;2.70;1.55;;;;;;;5.59;100.00;97458.34;4484377;31;20487;-66
2023/03/10 01:35:44;;;;;;;3.25;1.50;;;;;;;5.56;100.00;97458.62;4484318;31;20092;-66
2023/03/10 01:38:11;;;;;;;5.97;2.03;;;;;;;5.56;100.00;97457.81;4484370;31;20084;-66
2023/03/10 01:40:39;;;;;;;3.53;2.20;;;;;;;5.41;100.00;97457.41;4482931;32;20171;-66
2023/03/10 01:43:21;;;;;;;3.92;2.22;;;;;;;5.39;100.00;97462.75;4484297;31;20552;-66
2023/03/10 01:45:52;;;;;;;4.60;1.90;;;;;;;5.50;100.00;97454.00;4482719;32;20153;-66
2023/03/10 01:48:20;;;;;;;3.45;1.98;;;;;;;5.59;100.00;97449.75;4484262;32;20387;-66
2023/03/10 01:50:51;;;;;;;4.65;2.83;;;;;;;5.68;100.00;97446.31;4483925;31;20153;-66
2023/03/10 01:53:19;;;;;;;3.37;2.00;;;;;;;5.74;100.00;97447.53;4484218;31;20092;-66
2023/03/10 01:55:53;;;;;;;7.37;2.67;;;;;;;5.83;100.00;97444.91;4482793;32;20105;-66
2023/03/10 01:58:23;;;;;;;6.30;2.40;;;;;;;5.84;100.00;97433.56;4484189;32;20175;-66
2023/03/10 02:00:52;;;;;;;4.72;2.37;;;;;;;5.79;100.00;97430.56;4482679;32;20093;-66
2023/03/10 02:03:32;;;;;;;7.00;2.97;;;;;;;5.83;100.00;97428.53;4482855;32;20212;-66
2023/03/10 02:06:03;;;;;;;6.75;3.15;;;;;;;5.88;100.00;97428.91;4485847;32;20786;-66
2023/03/10 02:08:38;;;;;;;5.72;2.75;;;;;;;5.89;100.00;97422.75;4484910;32;20088;-66
2023/03/10 02:11:05;;;;;;;7.15;3.03;;;;;;;5.88;100.00;97421.09;4484848;32;20103;-66
2023/03/10 02:13:32;;;;;;;5.47;2.80;;;;;;;5.86;100.00;97421.25;4486230;31;20104;-66
2023/03/10 02:16:00;;;;;;;6.87;2.80;;;;;;;5.93;100.00;97418.09;4485914;31;20096;-66
2023/03/10 02:18:29;;;;;;;4.93;2.55;;;;;;;5.98;100.00;97416.75;4486083;31;20506;-66
2023/03/10 02:21:15;;;;;;;7.50;2.55;;;;;;;5.99;100.00;97409.75;4485829;31;20096;-66
2023/03/10 02:23:53;;;;;;;5.93;2.80;;;;;;;5.96;100.00;97403.00;4484852;32;20156;-65
2023/03/10 02:27:00;;;;;;;6.62;3.05;;;;;;;5.92;100.00;97406.88;4484755;32;20091;-66
2023/03/10 02:29:33;;;;;;;7.82;3.22;;;;;;;5.99;100.00;97404.56;4476721;32;20139;-66
2023/03/10 02:32:05;;;;;;;7.03;2.78;;;;;;;5.96;100.00;97397.00;4484984;32;20191;-66
2023/03/10 02:34:32;;;;;;;5.53;3.00;;;;;;;5.91;100.00;97399.22;4484646;32;20143;-66
2023/03/10 02:36:59;;;;;;;4.25;2.58;;;;;;;5.92;100.00;97399.09;4486136;32;20101;-66
2023/03/10 02:39:28;;;;;;;6.55;2.67;;;;;;;5.96;100.00;97399.59;4485889;32;20183;-66
2023/03/10 02:41:56;;;;;;;7.22;2.50;;;;;;;5.94;100.00;97391.94;4486068;31;20084;-66
2023/03/10 02:44:24;;;;;;;5.97;2.70;;;;;;;5.99;100.00;97394.16;4485926;31;20100;-66
2023/03/10 02:46:51;;;;;;;6.40;3.12;;;;;;;6.07;100.00;97380.44;4484385;32;20108;-66
2023/03/10 02:49:20;;;;;;;7.10;3.15;;;;;;;6.05;100.00;97385.78;4484889;32;20504;-66
2023/03/10 02:51:48;;;;;;;5.57;2.85;;;;;;;6.19;100.00;97384.50;4484574;32;20446;-66
2023/03/10 02:54:15;;;;;;;8.48;3.60;;;;;;;6.30;100.00;97386.91;4485712;32;20168;-66
2023/03/10 02:56:44;;;;;;;6.90;3.10;;;;;;;6.25;100.00;97383.09;4485945;31;20088;-66
2023/03/10 02:59:11;;;;;;;7.03;3.30;;;;;;;6.26;100.00;97376.94;4486053;31;20119;-66
2023/03/10 03:01:40;;;;;;;5.97;3.25;;;;;;;6.27;100.00;97376.81;4485930;31;20111;-66
2023/03/10 03:04:07;;;;;;;6.12;3.00;;;;;;;6.21;100.00;97375.59;4485784;31;20602;-66
2023/03/10 03:06:34;;;;;;;7.10;3.53;;;;;;;6.23;100.00;97367.66;4485745;31;20084;-66
2023/03/10 03:09:02;;;;;;;6.15;3.15;;;;;;;6.17;100.00;97369.03;4485981;31;20092;-66
2023/03/10 03:11:29;;;;;;;7.10;3.67;;;;;;;6.11;100.00;97363.59;4485869;31;20088;-66
2023/03/10 03:13:57;;;;;;;6.75;3.15;;;;;;;6.11;100.00;97358.41;4485943;31;20398;-66
2023/03/10 03:16:25;;;;;;;7.95;4.32;;;;;;;6.08;100.00;97353.50;4485409;31;20108;-66
2023/03/10 03:18:52;;;;;;;5.78;3.87;;;;;;;6.06;100.00;97345.00;4486047;31;20108;-66
2023/03/10 03:21:20;;;;;;;6.25;4.00;;;;;;;6.17;100.00;97342.22;4485913;32;20438;-66
2023/03/10 03:23:48;;;;;;;6.03;3.80;;;;;;;6.15;100.00;97336.34;4486024;31;20120;-66
2023/03/10 03:26:19;;;;;;;10.00;4.10;;;;;;;6.18;100.00;97339.47;4485729;31;20081;-66
2023/03/10 03:28:47;;;;;;;7.53;4.20;;;;;;;6.18;100.00;97323.88;4485902;31;20092;-66
2023/03/10 03:31:20;;;;;;;11.48;3.55;;;;;;;6.33;100.00;97319.00;4485906;32;20092;-65
2023/03/10 03:33:48;;;;;;;9.02;3.50;;;;;;;6.52;100.00;97315.44;4485936;32;20116;-65
2023/03/10 03:36:17;;;;;;;15.65;5.05;;;;;;;6.78;100.00;97311.31;4485595;31;20092;-65
2023/03/10 03:38:45;;;;;;;8.50;4.20;;;;;;;6.77;100.00;97313.09;4485605;31;20476;-66
2023/03/10 03:41:13;;;;;;;7.12;3.97;;;;;;;6.87;100.00;97311.25;4485657;31;20187;-66
2023/03/10 03:43:41;;;;;;;8.13;3.97;;;;;;;6.82;100.00;97303.03;4485772;31;20104;-66
2023/03/10 03:46:09;;;;;;;7.12;3.97;;;;;;;6.67;100.00;97313.16;4485528;32;20097;-66
2023/03/10 03:48:37;;;;;;;8.63;3.95;;;;;;;6.74;100.00;97300.38;4485749;31;20096;-66
2023/03/10 03:51:06;;;;;;;11.07;4.10;;;;;;;6.87;100.00;97297.38;4485467;32;20155;-66
2023/03/10 03:53:34;;;;;;;8.77;4.28;;;;;;;6.98;100.00;97293.72;4485619;32;20104;-65
2023/03/10 03:56:02;;;;;;;10.60;4.57;;;;;;;7.14;100.00;97288.66;4485707;31;20092;-66
2023/03/10 03:58:30;;;;;;;8.13;4.00;;;;;;;7.13;100.00;97281.81;4485517;31;20115;-65
2023/03/10 04:00:57;;;;;;;10.15;4.68;;;;;;;7.17;100.00;97279.72;4485417;31;20100;-66
2023/03/10 04:03:25;;;;;;;9.60;4.82;;;;;;;7.40;100.00;97280.03;4485548;31;20097;-65
2023/03/10 04:05:53;;;;;;;6.82;4.22;;;;;;;7.21;100.00;97275.84;4485235;31;20118;-66
2023/03/10 04:08:20;;;;;;;7.40;4.60;;;;;;;7.25;100.00;97272.78;4485255;31;20100;-66
2023/03/10 04:10:53;;;;;;;13.05;5.45;;;;;;;7.30;100.00;97267.13;4485358;31;20100;-66
2023/03/10 04:13:20;;;;;;;10.15;5.35;;;;;;;7.31;100.00;97262.72;4485487;31;20146;-66
2023/03/10 04:15:54;;;;;;;9.20;5.93;;;;;;;7.21;100.00;97266.25;4485280;32;20450;-66
2023/03/10 04:18:21;;;;;;;10.50;5.67;;;;;;;7.16;100.00;97265.06;4485507;31;20088;-65
2023/03/10 04:20:49;;;;;;;10.98;6.07;;;;;;;7.06;100.00;97268.56;4485224;31;20221;-66
2023/03/10 04:23:18;;;;;;;11.45;6.20;;;;;;;6.90;100.00;97269.28;4485368;31;20414;-66
2023/03/10 04:25:45;;;;;;;14.52;6.87;;;;;;;6.81;100.00;97256.34;4485278;31;20538;-66
2023/03/10 04:28:13;;;;;;;13.27;6.60;;;;;;;6.83;100.00;97252.62;4484460;31;20519;-65
2023/03/10 04:30:41;;;;;;;17.87;6.70;;;;;;;6.87;100.00;97259.19;4485266;32;20192;-65
2023/03/10 04:33:09;;;;;;;12.75;6.75;;;;;;;6.91;100.00;97251.88;4485292;31;20180;-65
2023/03/10 04:35:41;;;;;;;13.05;7.32;;;;;;;6.77;100.00;97250.63;4485137;31;20084;-65
2023/03/10 04:38:09;;;;;;;15.68;7.78;;;;;;;6.42;100.00;97251.44;4484976;31;20144;-65
2023/03/10 04:40:36;;;;;;;16.70;8.95;;;;;;;6.52;100.00;97252.19;4484854;31;20088;-65
2023/03/10 04:43:03;;;;;;;17.73;9.15;;;;;;;6.48;100.00;97250.84;4485284;31;20100;-65
2023/03/10 04:45:31;;;;;;;16.10;8.27;;;;;;;6.38;100.00;97262.16;4484804;31;20495;-65
2023/03/10 04:47:58;;;;;;;15.20;8.20;;;;;;;6.29;100.00;97246.62;4484928;31;20165;-65
2023/03/10 04:50:26;;;;;;;16.70;8.48;;;;;;;6.26;100.00;97252.13;4484875;31;20097;-65
2023/03/10 04:52:53;;;;;;;16.80;8.10;;;;;;;6.28;100.00;97238.00;4484949;31;20745;-66
2023/03/10 04:55:21;;;;;;;16.15;8.00;;;;;;;6.09;100.00;97241.56;4484874;31;20659;-65
2023/03/10 04:57:49;;;;;;;17.40;8.95;;;;;;;6.09;100.00;97233.75;4484958;31;20088;-65
2023/03/10 05:00:17;;;;;;;17.85;8.85;;;;;;;6.00;100.00;97238.03;4484822;31;20490;-66
2023/03/10 05:02:44;;;;;;;14.63;9.20;;;;;;;6.01;100.00;97228.44;4484595;31;20521;-65
2023/03/10 05:05:12;;;;;;;15.55;8.60;;;;;;;5.99;100.00;97225.19;4484700;31;20179;-65
2023/03/10 05:07:40;;;;;;;16.65;8.45;;;;;;;5.93;100.00;97225.75;4485040;31;20462;-65
2023/03/10 05:10:08;;;;;;;15.73;7.68;;;;;;;5.83;100.00;97225.81;4484783;31;20088;-65
2023/03/10 05:12:37;;;;;;;14.68;7.90;;;;;;;5.77;100.00;97216.81;4484621;31;20173;-65
2023/03/10 05:15:06;;;;;;;15.18;8.15;;;;;;;5.88;100.00;97218.37;4484524;31;20096;-66
2023/03/10 05:17:34;;;;;;;15.85;8.13;;;;;;;5.75;100.00;97207.50;4484777;31;20148;-65
2023/03/10 05:20:03;;;;;;;15.85;7.60;;;;;;;5.81;100.00;97214.72;4483648;32;20153;-65
2023/03/10 05:22:31;;;;;;;14.20;8.30;;;;;;;5.62;100.00;97223.47;4483728;31;20100;-65
2023/03/10 05:24:58;;;;;;;12.48;7.40;;;;;;;5.65;100.00;97212.78;4484388;31;20126;-65
2023/03/10 05:27:26;;;;;;;12.30;6.95;;;;;;;5.45;100.00;97202.47;4483896;31;20567;-65
2023/03/10 05:29:53;;;;;;;14.82;8.05;;;;;;;5.51;100.00;97206.25;4484684;31;20096;-65
2023/03/10 05:32:22;;;;;;;11.25;6.12;;;;;;;5.47;100.00;97194.53;4472401;32;20162;-66
2023/03/10 05:34:50;;;;;;;10.48;6.82;;;;;;;5.70;100.00;97200.16;4466787;32;20076;-65
2023/03/10 05:37:17;;;;;;;10.52;5.80;;;;;;;5.80;100.00;97195.72;4478184;31;20258;-65
2023/03/10 05:39:45;;;;;;;8.88;5.87;;;;;;;6.08;100.00;97200.91;4486438;31;20096;-66
2023/03/10 05:42:14;;;;;;;12.23;6.00;;;;;;;6.25;100.00;97194.06;4485398;31;20236;-65
2023/03/10 05:44:41;;;;;;;11.10;5.57;;;;;;;6.39;100.00;97192.75;4485612;32;20108;-66
2023/03/10 05:47:09;;;;;;;9.43;5.80;;;;;;;6.46;100.00;97193.78;4486269;32;20118;-66
2023/03/10 05:49:36;;;;;;;10.20;5.70;;;;;;;6.51;100.00;97181.16;4486136;31;20511;-66
2023/03/10 05:52:05;;;;;;;13.07;5.85;;;;;;;6.60;100.00;97191.59;4484714;31;20128;-66
2023/03/10 05:54:33;;;;;;;9.40;5.82;;;;;;;6.78;100.00;97186.38;4485110;31;20171;-66
2023/03/10 05:57:00;;;;;;;9.60;5.45;;;;;;;6.93;100.00;97175.25;4485046;31;20231;-66
2023/03/10 05:59:27;;;;;;;9.80;5.30;;;;;;;7.07;100.00;97181.69;4485647;31;20526;-66
2023/03/10 06:01:55;;;;;;;12.10;5.50;;;;;;;7.22;100.00;97171.53;4481518;32;20127;-66
2023/03/10 06:04:22;;;;;;;11.10;5.50;;;;;;;7.38;100.00;97162.12;4480223;32;20096;-65
2023/03/10 06:06:50;;;;;;;13.23;5.87;;;;;;;7.54;100.00;97164.81;4481321;31;20097;-66
2023/03/10 06:09:17;;;;;;;11.57;6.12;;;;;;;7.60;100.00;97158.13;4483451;31;20092;-66
2023/03/10 06:11:45;;;;;;;13.25;6.47;;;;;;;7.77;100.00;97161.62;4482242;32;20092;-66
2023/03/10 06:14:12;;;;;;;12.18;5.55;;;;;;;7.78;100.00;97166.69;4483457;31;20124;-66
2023/03/10 06:16:39;;;;;;;11.15;5.90;;;;;;;8.04;100.00;97168.38;4473166;31;20163;-66
2023/03/10 06:19:07;;;;;;;8.98;5.45;;;;;;;8.20;100.00;97170.16;4484794;31;20120;-66
2023/03/10 06:21:34;;;;;;;10.90;5.15;;;;;;;8.22;100.00;97167.38;4484320;31;20089;-66
2023/03/10 06:24:01;;;;;;;9.85;5.90;;;;;;;8.29;100.00;97161.34;4480398;31;20585;-66
2023/03/10 06:26:29;;;;;;;9.25;5.40;;;;;;;8.51;100.00;97166.97;4482292;32;20104;-67
2023/03/10 06:28:56;;;;;;;10.77;5.65;;;;;;;8.61;100.00;97164.16;4476701;31;20148;-66
2023/03/10 06:31:24;;;;;;;10.60;4.03;;;;;;;8.69;100.00;97161.53;4480664;31;20116;-66
2023/03/10 06:33:52;;;;;;;9.13;5.20;;;;;;;8.79;100.00;97148.31;4479404;32;20149;-66
2023/03/10 06:36:21;;;;;;;9.80;4.45;;;;;;;8.90;100.00;97157.59;4483618;32;20456;-65
2023/03/10 06:38:48;;;;;;;7.95;4.53;;;;;;;8.97;100.00;97143.72;4482175;31;20093;-64
2023/03/10 06:41:16;;;;;;;10.00;5.28;;;;;;;9.13;100.00;97153.31;4480762;31;20101;-64
2023/03/10 06:43:43;;;;;;;8.55;4.70;;;;;;;9.25;100.00;97153.78;4482294;31;20088;-65
2023/03/10 06:46:10;;;;;;;9.25;5.57;;;;;;;9.38;100.00;97154.03;4482605;31;20092;-66
2023/03/10 06:48:39;;;;;;;9.13;5.50;;;;;;;9.50;100.00;97154.47;4481782;32;20124;-66
2023/03/10 06:51:13;;;;;;;11.40;5.62;;;;;;;9.67;100.00;97157.03;4482808;31;20120;-66
2023/03/10 06:53:41;;;;;;;9.18;5.37;;;;;;;9.77;100.00;97153.19;4480342;31;20155;-66
2023/03/10 06:56:11;;;;;;;10.63;5.03;;;;;;;9.92;100.00;97155.09;4483075;31;20092;-65
2023/03/10 06:58:39;;;;;;;13.57;4.82;;;;;;;9.93;100.00;97154.91;4484205;31;20544;-66
2023/03/10 07:01:07;;;;;;;8.35;4.95;;;;;;;10.17;100.00;97149.69;4482317;31;20112;-65
2023/03/10 07:03:35;;;;;;;13.48;5.03;;;;;;;10.12;100.00;97160.69;4481337;31;20084;-66
2023/03/10 07:06:03;;;;;;;10.05;4.60;;;;;;;10.39;100.00;97161.19;4480571;32;20107;-66
2023/03/10 07:08:31;;;;;;;9.93;5.50;;;;;;;10.56;100.00;97154.00;4482849;31;20156;-65
2023/03/10 07:10:58;;;;;;;11.23;5.12;;;;;;;10.55;100.00;97155.81;4481668;32;20151;-65
2023/03/10 07:13:25;;;;;;;9.77;4.35;;;;;;;10.70;100.00;97158.44;4482998;31;20437;-65
2023/03/10 07:15:52;;;;;;;8.15;4.60;;;;;;;10.92;100.00;97155.97;4482957;32;20116;-65
2023/03/10 07:18:19;;;;;;;7.90;4.37;;;;;;;10.98;100.00;97147.41;4484134;32;20088;-65
2023/03/10 07:20:47;;;;;;;10.85;4.80;;;;;;;11.00;100.00;97159.31;4480112;32;20204;-66
2023/03/10 07:23:14;;;;;;;7.40;4.60;;;;;;;11.16;100.00;97153.09;4477863;31;20234;-66
2023/03/10 07:25:41;;;;;;;10.88;4.70;;;;;;;11.33;100.00;97158.16;4483438;31;20105;-65
2023/03/10 07:28:08;;;;;;;9.40;4.85;;;;;;;11.30;100.00;97153.28;4481611;31;20104;-66
2023/03/10 07:30:37;;;;;;;10.10;4.50;;;;;;;11.37;100.00;97159.44;4483635;31;20139;-66
2023/03/10 07:33:04;;;;;;;14.07;4.60;;;;;;;11.69;100.00;97155.56;4476585;31;20163;-66
2023/03/10 07:35:31;;;;;;;11.82;5.78;;;;;;;11.40;100.00;97166.09;4478084;31;20156;-66
2023/03/10 07:38:03;;;;;;;12.40;5.70;;;;;;;11.71;100.00;97158.00;4478486;31;20493;-66
2023/03/10 07:40:30;;;;;;;8.25;4.40;;;;;;;12.10;100.00;97159.47;4483774;32;20496;-66
2023/03/10 07:42:57;;;;;;;10.48;4.90;;;;;;;12.35;100.00;97159.91;4484082;31;20115;-67
2023/03/10 07:45:26;;;;;;;4.97;3.95;;;;;;;12.55;100.00;97162.72;4483986;31;20147;-67
2023/03/10 07:47:54;;;;;;;9.85;4.70;;;;;;;12.64;100.00;97152.06;4479809;31;20088;-67
2023/03/10 07:50:21;;;;;;;11.38;5.57;;;;;;;12.71;100.00;97143.25;4481908;31;20157;-66
2023/03/10 07:52:48;;;;;;;7.93;4.78;;;;;;;12.68;100.00;97146.25;4482780;31;20112;-68
2023/03/10 07:55:16;;;;;;;9.48;4.97;;;;;;;12.68;100.00;97142.81;4481217;31;20141;-66
2023/03/10 07:57:44;;;;;;;13.65;4.90;;;;;;;12.60;100.00;97135.87;4483425;31;20120;-67
2023/03/10 08:00:11;;;;;;;10.95;4.68;;;;;;;12.23;100.00;97143.87;4479913;31;20143;-66
2023/03/10 08:02:39;;;;;;;9.75;4.62;;;;;;;12.16;100.00;97139.56;4481844;31;20491;-66
2023/03/10 08:05:07;;;;;;;22.48;5.30;;;;;;;12.04;100.00;97139.22;4479920;31;20131;-67
2023/03/10 08:07:35;;;;;;;9.63;5.30;;;;;;;12.12;100.00;97144.34;4484228;32;20118;-67
2023/03/10 08:10:03;;;;;;;11.30;5.05;;;;;;;12.37;100.00;97141.34;4485158;31;20139;-67
2023/03/10 08:12:30;;;;;;;12.52;5.07;;;;;;;12.52;100.00;97133.38;4475458;31;20118;-66
2023/03/10 08:14:59;;;;;;;9.93;5.62;;;;;;;12.32;100.00;97122.72;4477266;31;20150;-67
2023/03/10 08:17:29;;;;;;;11.10;5.30;;;;;;;12.38;100.00;97122.78;4480244;31;20179;-66
2023/03/10 08:19:57;;;;;;;8.32;5.12;;;;;;;12.49;100.00;97115.38;4481460;31;20130;-66
2023/03/10 08:22:25;;;;;;;9.45;5.60;;;;;;;12.78;100.00;97122.28;4481279;31;20100;-66
2023/03/10 08:24:53;;;;;;;11.40;5.60;;;;;;;12.88;100.00;97119.31;4479875;31;20100;-66
2023/03/10 08:27:20;;;;;;;14.45;6.10;;;;;;;12.72;100.00;97115.97;4481131;32;20100;-67
2023/03/10 08:29:47;;;;;;;12.70;6.32;;;;;;;12.98;100.00;97114.53;4480296;31;20161;-67
2023/03/10 08:32:15;;;;;;;11.00;5.45;;;;;;;12.84;100.00;97108.38;4482079;31;20112;-67
2023/03/10 08:34:42;;;;;;;10.57;5.25;;;;;;;12.66;100.00;97093.09;4480238;31;20097;-67
2023/03/10 08:37:10;;;;;;;7.97;5.45;;;;;;;12.67;100.00;97089.47;4482325;31;20081;-67
2023/03/10 08:39:37;;;;;;;14.95;5.93;;;;;;;12.71;100.00;97088.06;4478437;32;20123;-67
2023/03/10 08:42:05;;;;;;;13.20;5.62;;;;;;;12.64;100.00;97089.03;4480801;31;20116;-67
2023/03/10 08:44:32;;;;;;;9.35;5.97;;;;;;;12.40;100.00;97085.84;4481190;31;20110;-67
2023/03/10 08:47:00;;;;;;;16.02;6.10;;;;;;;12.05;100.00;97081.31;4484242;31;20111;-67
2023/03/10 08:49:27;;;;;;;11.25;6.40;;;;;;;12.09;100.00;97081.72;4480520;32;20161;-66
2023/03/10 08:51:54;;;;;;;9.68;6.18;;;;;;;12.37;100.00;97078.31;4481857;31;20852;-67
2023/03/10 08:54:22;;;;;;;11.57;5.78;;;;;;;12.53;100.00;97085.91;4479814;31;20449;-67
2023/03/10 08:56:49;;;;;;;11.30;6.80;;;;;;;12.63;100.00;97079.50;4481551;31;20123;-67
2023/03/10 08:59:18;;;;;;;13.27;6.68;;;;;;;12.53;100.00;97078.03;4482076;32;20432;-66
2023/03/10 09:01:45;;;;;;;12.68;6.12;;;;;;;12.67;100.00;97070.25;4478945;32;20151;-67
2023/03/10 09:04:12;;;;;;;11.95;5.55;;;;;;;13.02;100.00;97078.12;4481727;31;20092;-67
2023/03/10 09:06:40;;;;;;;9.10;4.95;;;;;;;13.10;100.00;97075.34;4481028;31;20167;-67
2023/03/10 09:09:09;;;;;;;11.12;4.75;;;;;;;13.22;100.00;97071.16;4481233;31;20184;-67
2023/03/10 09:11:38;;;;;;;12.68;6.05;;;;;;;13.32;100.00;97074.25;4478716;31;20777;-67
2023/03/10 09:14:06;;;;;;;11.32;5.82;;;;;;;13.41;100.00;97071.47;4481941;32;20122;-67
2023/03/10 09:16:34;;;;;;;13.90;6.37;;;;;;;13.35;100.00;97062.53;4480450;31;20612;-66
2023/03/10 09:19:01;;;;;;;10.25;6.03;;;;;;;13.31;100.00;97061.28;4481639;31;20446;-66
2023/03/10 09:21:30;;;;;;;14.23;6.32;;;;;;;13.35;100.00;97051.22;4482455;31;20126;-65
2023/03/10 09:24:00;;;;;;;13.65;5.90;;;;;;;13.41;100.00;97048.59;4481110;31;20452;-65
2023/03/10 09:26:27;;;;;;;26.87;7.18;;;;;;;13.44;100.00;97050.84;4482611;31;20183;-66
2023/03/10 09:28:55;;;;;;;11.38;5.87;;;;;;;13.40;100.00;97038.25;4477645;31;20124;-66
2023/03/10 09:31:30;;;;;;;9.00;6.10;;;;;;;13.27;100.00;97034.56;4480383;32;20100;-66
2023/03/10 09:33:57;;;;;;;15.00;6.40;;;;;;;13.57;100.00;97033.47;4478619;31;20100;-66
2023/03/10 09:36:25;;;;;;;15.82;6.37;;;;;;;13.87;100.00;97033.09;4479278;32;20148;-66
2023/03/10 09:38:52;;;;;;;13.25;7.07;;;;;;;13.84;100.00;97032.50;4478274;31;20449;-66
2023/03/10 09:41:31;;;;;;;17.58;7.43;;;;;;;13.59;100.00;97026.19;4480621;31;20111;-66
2023/03/10 09:44:56;;;;;;;17.25;8.55;;;;;;;13.88;100.00;97019.75;4478781;32;20096;-66
2023/03/10 09:47:52;;;;;;;21.17;9.73;;;;;;;13.98;100.00;97020.16;4417102;32;20545;-66
2023/03/10 09:50:35;;;;;;;18.60;8.57;;;;;;;14.00;100.00;97015.53;4399695;32;20144;-66
2023/03/10 09:53:26;;;;;;;15.93;8.52;;;;;;;14.19;100.00;97016.50;4417465;32;20158;-65
2023/03/10 09:55:54;;;;;;;18.52;8.70;;;;;;;14.17;100.00;97013.28;4416688;32;20487;-66
2023/03/10 09:58:32;;;;;;;15.50;8.02;;;;;;;14.37;100.00;97008.00;4414815;32;20199;-65
2023/03/10 10:01:00;;;;;;;16.85;8.30;;;;;;;14.51;100.00;96997.44;4402629;32;20134;-66
2023/03/10 10:04:00;;;;;;;11.60;7.32;;;;;;;14.86;100.00;96991.91;4418065;32;20192;-65
2023/03/10 10:06:31;;;;;;;14.07;7.85;;;;;;;14.79;100.00;96991.09;4409714;32;20117;-66
2023/03/10 10:09:13;;;;;;;17.50;7.93;;;;;;;14.85;100.00;96985.81;4414975;32;20179;-65
2023/03/10 10:11:40;;;;;;;12.88;7.37;;;;;;;14.61;100.00;96991.75;4401784;32;20171;-66
2023/03/10 10:14:37;;;;;;;13.48;6.97;;;;;;;14.73;100.00;96988.28;4417689;32;20556;-66
2023/03/10 10:17:43;;;;;;;18.25;6.80;;;;;;;14.67;100.00;96981.22;4414994;32;20089;-66
2023/03/10 10:20:31;;;;;;;14.25;6.57;;;;;;;14.84;100.00;96973.66;4403500;32;20208;-67
2023/03/10 10:22:59;;;;;;;13.15;6.55;;;;;;;14.66;100.00;96969.03;4474760;31;20108;-65
2023/03/10 10:25:30;;;;;;;11.95;6.22;;;;;;;15.00;100.00;96964.44;4479999;32;20100;-65
2023/03/10 10:27:58;;;;;;;10.65;5.72;;;;;;;15.21;100.00;96960.69;4482920;32;20530;-65
2023/03/10 10:30:32;;;;;;;9.18;4.78;;;;;;;15.27;100.00;96949.28;4480171;31;20104;-66
2023/03/10 10:33:08;;;;;;;16.87;5.32;;;;;;;15.73;100.00;96946.56;4478297;32;20108;-65
2023/03/10 10:35:41;;;;;;;7.68;2.40;;;;;;;15.84;100.00;96953.03;4481645;31;20104;-66
2023/03/10 10:38:09;;;;;;;8.52;2.87;;;;;;;16.10;91.98;96939.56;4481876;31;20160;-65
2023/03/10 10:41:05;;;;;;;9.88;2.80;;;;;;;16.52;92.80;96936.31;4478243;32;20103;-66
2023/03/10 10:43:42;;;;;;;6.62;2.90;;;;;;;17.01;88.88;96941.66;4479855;32;20124;-66
2023/03/10 10:46:11;;;;;;;4.00;2.12;;;;;;;17.11;84.26;96944.59;4484719;31;20101;-66
2023/03/10 10:48:47;;;;;;;15.68;3.33;;;;;;;17.25;85.52;96933.81;4482162;31;20519;-66
2023/03/10 10:51:28;;;;;;;3.35;2.80;;;;;;;17.55;84.53;96931.16;4479112;32;20153;-66
2023/03/10 10:54:03;;;;;;;3.67;2.17;;;;;;;17.98;86.81;96929.28;4483427;32;20097;-66
2023/03/10 10:56:30;;;;;;;5.95;3.10;;;;;;;18.65;80.28;96920.09;4480443;32;20157;-65
2023/03/10 10:59:04;;;;;;;5.00;2.42;;;;;;;18.44;78.56;96919.69;4478693;31;20526;-65
2023/03/10 11:01:53;;;;;;;4.80;2.65;;;;;;;18.66;79.02;96908.44;4478544;31;20131;-65
2023/03/10 11:04:22;;;;;;;5.05;2.12;;;;;;;18.82;78.00;96899.75;4477174;32;20173;-65
2023/03/10 11:06:50;;;;;;;11.52;2.55;;;;;;;19.15;75.54;96898.25;4479061;31;20089;-66
2023/03/10 11:09:20;;;;;;;3.33;1.85;;;;;;;19.30;72.72;96890.56;4475442;32;20108;-64
2023/03/10 11:12:18;;;;;;;6.05;2.60;;;;;;;18.96;72.79;96882.53;4479173;31;20084;-65
2023/03/10 11:15:05;;;;;;;46.85;3.72;;;;;;;18.78;72.59;96875.53;4479838;31;20097;-64
2023/03/10 11:18:02;;;;;;;8.82;2.45;;;;;;;18.81;74.64;96868.94;4477946;32;20116;-65
2023/03/10 11:20:33;;;;;;;4.60;2.12;;;;;;;18.69;74.21;96863.69;4477395;32;20154;-66
2023/03/10 11:23:06;;;;;;;5.10;1.85;;;;;;;18.44;74.71;96861.34;4484268;32;20177;-65
2023/03/10 11:25:37;;;;;;;5.00;1.87;;;;;;;18.49;76.62;96856.16;4482248;31;20169;-65
2023/03/10 11:28:24;;;;;;;3.70;1.98;;;;;;;18.58;75.63;96854.72;4480584;31;20108;-66
2023/03/10 11:31:00;;;;;;;8.77;2.03;;;;;;;18.99;71.85;96848.62;4475225;32;20138;-66
2023/03/10 11:33:39;;;;;;;5.25;2.12;;;;;;;19.02;73.64;96840.19;4480498;32;20093;-65
2023/03/10 11:36:20;;;;;;;14.07;3.35;;;;;;;19.18;71.82;96842.03;4478635;31;20093;-65
2023/03/10 11:38:49;;;;;;;6.05;2.00;;;;;;;19.23;72.13;96839.47;4479816;31;20108;-65
2023/03/10 11:41:20;;;;;;;6.82;2.20;;;;;;;19.27;70.81;96824.69;4478623;32;20088;-65